createdAt,value
2023-06-17T00:00:36.908Z,97204.31
2023-06-17T00:02:39.697Z,97200.94
2023-06-17T00:04:42.364Z,97204.66
2023-06-17T00:06:44.993Z,97203.06
2023-06-17T00:08:47.653Z,97204.91
2023-06-17T00:10:51.650Z,97198.75
2023-06-17T00:12:55.587Z,97199.69
2023-06-17T00:14:58.463Z,97195.25
2023-06-17T00:17:01.909Z,97198.28
2023-06-17T00:19:05.457Z,97196.56
2023-06-17T00:21:10.293Z,97196.69
2023-06-17T00:23:13.143Z,97189.97
2023-06-17T00:25:15.812Z,97196.44
2023-06-17T00:27:19.869Z,97186.25
2023-06-17T00:29:22.788Z,97198.63
2023-06-17T00:31:27.862Z,97194.38
2023-06-17T00:33:30.585Z,97182.13
2023-06-17T00:35:33.639Z,97188.38
2023-06-17T00:37:36.263Z,97183.94
2023-06-17T00:39:40.041Z,97181.28
2023-06-17T00:41:42.682Z,97183.19
2023-06-17T00:43:46.977Z,97183.19
2023-06-17T00:45:49.698Z,97179.72
2023-06-17T00:47:53.462Z,97185.16
2023-06-17T00:49:56.463Z,97177.41
2023-06-17T00:54:14.848Z,97176.81
2023-06-17T00:56:18.888Z,97180.44
2023-06-17T00:58:21.714Z,97168.28
2023-06-17T01:00:26.133Z,97180.88
2023-06-17T01:02:29.134Z,97180.28
2023-06-17T01:04:32.911Z,97185.91
2023-06-17T01:06:42.475Z,97180.88
2023-06-17T01:08:52.388Z,97179.16
2023-06-17T01:11:01.807Z,97179.41
2023-06-17T01:13:06.631Z,97181.56
2023-06-17T01:15:11.748Z,97179.88
2023-06-17T01:17:19.039Z,97176.75
2023-06-17T01:19:25.911Z,97180.56
2023-06-17T01:21:29.755Z,97166.75
2023-06-17T01:23:36.018Z,97181.97
2023-06-17T01:25:40.909Z,97171.66
2023-06-17T01:27:43.560Z,97171.78
2023-06-17T01:29:50.228Z,97177.06
2023-06-17T01:31:53.102Z,97176.16
2023-06-17T01:33:58.426Z,97176.09
2023-06-17T01:36:05.505Z,97175.22
2023-06-17T01:38:11.957Z,97177.97
2023-06-17T01:40:16.307Z,97174.59
2023-06-17T01:42:23.052Z,97171.13
2023-06-17T01:44:27.483Z,97179.25
2023-06-17T01:46:30.555Z,97176.59
2023-06-17T01:48:33.566Z,97181.91
2023-06-17T01:50:36.414Z,97180.00
2023-06-17T01:52:39.208Z,97180.09
2023-06-17T01:54:41.877Z,97178.56
2023-06-17T01:56:44.585Z,97178.63
2023-06-17T01:58:48.602Z,97176.34
2023-06-17T02:00:51.568Z,97171.19
2023-06-17T02:02:54.316Z,97176.69
2023-06-17T02:04:57.131Z,97176.06
2023-06-17T02:07:00.390Z,97175.34
2023-06-17T02:09:04.045Z,97172.94
2023-06-17T02:11:06.716Z,97175.69
2023-06-17T02:13:09.640Z,97165.44
2023-06-17T02:15:13.871Z,97176.25
2023-06-17T02:17:16.760Z,97172.00
2023-06-17T02:19:19.412Z,97163.47
2023-06-17T02:21:22.142Z,97168.03
2023-06-17T02:23:24.812Z,97163.69
2023-06-17T02:25:27.471Z,97167.41
2023-06-17T02:27:30.147Z,97167.06
2023-06-17T02:29:32.794Z,97165.28
2023-06-17T02:31:36.891Z,97156.75
2023-06-17T02:33:39.667Z,97155.38
2023-06-17T02:35:42.348Z,97155.72
2023-06-17T02:37:45.641Z,97160.28
2023-06-17T02:39:48.321Z,97158.69
2023-06-17T02:41:50.963Z,97167.56
2023-06-17T02:43:53.617Z,97159.88
2023-06-17T02:45:56.220Z,97156.38
2023-06-17T02:48:00.519Z,97156.63
2023-06-17T02:50:03.943Z,97156.00
2023-06-17T02:52:07.608Z,97151.88
2023-06-17T02:54:11.908Z,97154.00
2023-06-17T02:56:14.564Z,97155.16
2023-06-17T02:58:19.982Z,97158.75
2023-06-17T03:00:23.347Z,97155.63
2023-06-17T03:02:26.275Z,97148.75
2023-06-17T03:04:35.915Z,97162.00
2023-06-17T03:06:38.855Z,97157.81
2023-06-17T03:08:43.046Z,97156.09
2023-06-17T03:10:45.648Z,97158.75
2023-06-17T03:12:48.275Z,97156.09
2023-06-17T03:14:53.701Z,97158.75
2023-06-17T03:16:58.650Z,97158.75
2023-06-17T03:19:01.662Z,97165.00
2023-06-17T03:21:05.943Z,97162.53
2023-06-17T03:23:08.634Z,97164.47
2023-06-17T03:25:14.219Z,97157.72
2023-06-17T03:27:16.901Z,97163.94
2023-06-17T03:29:20.444Z,97160.56
2023-06-17T03:31:23.776Z,97163.31
2023-06-17T03:33:26.494Z,97163.44
2023-06-17T03:35:29.166Z,97169.75
2023-06-17T03:37:33.136Z,97164.47
2023-06-17T03:39:35.850Z,97156.78
2023-06-17T03:41:38.535Z,97167.34
2023-06-17T03:43:41.647Z,97163.84
2023-06-17T03:45:44.439Z,97162.25
2023-06-17T03:47:47.519Z,97166.81
2023-06-17T03:49:50.197Z,97166.91
2023-06-17T03:51:52.822Z,97162.69
2023-06-17T03:53:56.803Z,97165.44
2023-06-17T03:55:59.561Z,97175.03
2023-06-17T03:58:02.194Z,97174.91
2023-06-17T04:00:07.305Z,97171.34
2023-06-17T04:02:10.021Z,97169.34
2023-06-17T04:04:12.679Z,97168.38
2023-06-17T04:06:17.512Z,97171.00
2023-06-17T04:08:23.331Z,97174.50
2023-06-17T04:10:28.075Z,97169.34
2023-06-17T04:12:30.989Z,97171.97
2023-06-17T04:14:33.658Z,97186.09
2023-06-17T04:16:36.893Z,97184.53
2023-06-17T04:18:41.661Z,97185.38
2023-06-17T04:20:45.596Z,97181.78
2023-06-17T04:22:48.339Z,97186.84
2023-06-17T04:24:57.158Z,97181.44
2023-06-17T04:27:01.242Z,97185.78
2023-06-17T04:29:04.594Z,97176.06
2023-06-17T04:31:11.905Z,97187.34
2023-06-17T04:33:15.819Z,97184.63
2023-06-17T04:35:20.143Z,97181.03
2023-06-17T04:37:23.218Z,97182.72
2023-06-17T04:39:27.482Z,97175.66
2023-06-17T04:41:33.703Z,97182.50
2023-06-17T04:43:38.908Z,97180.59
2023-06-17T04:45:41.567Z,97182.94
2023-06-17T04:47:44.320Z,97184.19
2023-06-17T04:49:49.115Z,97182.19
2023-06-17T04:51:53.839Z,97181.16
2023-06-17T04:53:57.870Z,97174.81
2023-06-17T04:56:01.629Z,97179.34
2023-06-17T04:58:05.859Z,97182.81
2023-06-17T05:00:12.420Z,97176.59
2023-06-17T05:02:15.461Z,97175.66
2023-06-17T05:04:18.154Z,97171.56
2023-06-17T05:06:26.188Z,97168.91
2023-06-17T05:08:28.844Z,97182.63
2023-06-17T05:10:31.471Z,97182.41
2023-06-17T05:12:34.091Z,97179.66
2023-06-17T05:14:36.758Z,97188.31
2023-06-17T05:16:41.411Z,97189.28
2023-06-17T05:18:44.135Z,97184.94
2023-06-17T05:20:46.774Z,97184.69
2023-06-17T05:22:49.551Z,97181.25
2023-06-17T05:24:52.202Z,97184.59
2023-06-17T05:26:54.782Z,97184.50
2023-06-17T05:28:58.208Z,97184.28
2023-06-17T05:31:00.851Z,97179.00
2023-06-17T05:33:04.963Z,97179.84
2023-06-17T05:35:08.473Z,97177.22
2023-06-17T05:37:11.438Z,97185.84
2023-06-17T05:39:14.289Z,97189.34
2023-06-17T05:41:16.985Z,97177.41
2023-06-17T05:43:19.645Z,97189.44
2023-06-17T05:45:22.388Z,97186.81
2023-06-17T05:47:25.128Z,97192.59
2023-06-17T05:49:29.163Z,97186.16
2023-06-17T05:51:31.824Z,97191.00
2023-06-17T05:53:34.456Z,97187.19
2023-06-17T05:55:37.162Z,97190.56
2023-06-17T05:57:39.964Z,97194.88
2023-06-17T05:59:42.612Z,97188.66
2023-06-17T06:01:45.307Z,97190.09
2023-06-17T06:03:48.041Z,97191.69
2023-06-17T06:05:52.100Z,97192.44
2023-06-17T06:07:54.764Z,97190.41
2023-06-17T06:09:57.388Z,97185.00
2023-06-17T06:12:00.083Z,97188.28
2023-06-17T06:14:02.771Z,97192.34
2023-06-17T06:16:05.809Z,97188.53
2023-06-17T06:18:08.639Z,97186.66
2023-06-17T06:20:12.150Z,97193.38
2023-06-17T06:22:16.154Z,97193.16
2023-06-17T06:24:18.884Z,97193.03
2023-06-17T06:26:22.413Z,97197.59
2023-06-17T06:28:25.169Z,97191.66
2023-06-17T06:30:27.805Z,97189.22
2023-06-17T06:32:30.634Z,97196.19
2023-06-17T06:34:33.335Z,97191.03
2023-06-17T06:36:36.766Z,97195.22
2023-06-17T06:38:43.291Z,97201.13
2023-06-17T06:40:46.071Z,97198.28
2023-06-17T06:42:48.703Z,97194.22
2023-06-17T06:44:51.326Z,97196.78
2023-06-17T06:46:56.767Z,97201.94
2023-06-17T06:49:00.259Z,97202.78
2023-06-17T06:51:03.821Z,97199.81
2023-06-17T06:53:06.510Z,97195.25
2023-06-17T06:55:10.866Z,97196.94
2023-06-17T06:57:13.592Z,97198.88
2023-06-17T06:59:16.362Z,97198.66
2023-06-17T07:01:19.232Z,97197.91
2023-06-17T07:03:22.024Z,97203.09
2023-06-17T07:05:24.868Z,97203.94
2023-06-17T07:07:27.570Z,97203.56
2023-06-17T07:09:30.273Z,97208.66
2023-06-17T07:11:34.301Z,97193.50
2023-06-17T07:13:37.049Z,97194.94
2023-06-17T07:15:39.660Z,97197.25
2023-06-17T07:17:42.459Z,97200.41
2023-06-17T07:19:45.120Z,97200.16
2023-06-17T07:21:49.826Z,97197.28
2023-06-17T07:26:00.167Z,97197.53
2023-06-17T07:28:04.414Z,97195.59
2023-06-17T07:30:09.203Z,97198.00
2023-06-17T07:32:11.985Z,97201.25
2023-06-17T07:34:14.725Z,97201.97
2023-06-17T07:36:17.562Z,97194.78
2023-06-17T07:38:20.479Z,97198.75
2023-06-17T07:40:23.344Z,97196.97
2023-06-17T07:42:26.197Z,97187.06
2023-06-17T07:44:33.522Z,97180.72
2023-06-17T07:46:36.173Z,97191.94
2023-06-17T07:48:38.783Z,97193.75
2023-06-17T07:50:41.399Z,97191.22
2023-06-17T07:52:47.108Z,97191.09
2023-06-17T07:54:52.320Z,97194.47
2023-06-17T07:56:55.388Z,97185.66
2023-06-17T07:58:58.137Z,97180.72
2023-06-17T08:01:02.790Z,97179.78
2023-06-17T08:03:07.870Z,97183.00
2023-06-17T08:05:11.463Z,97186.25
2023-06-17T08:07:14.253Z,97182.53
2023-06-17T08:09:16.955Z,97179.75
2023-06-17T08:11:19.930Z,97177.72
2023-06-17T08:13:22.664Z,97182.03
2023-06-17T08:15:25.383Z,97184.94
2023-06-17T08:17:29.589Z,97183.94
2023-06-17T08:19:35.233Z,97177.56
2023-06-17T08:21:43.308Z,97174.66
2023-06-17T08:26:12.802Z,97170.56
2023-06-17T08:28:15.605Z,97167.53
2023-06-17T08:30:29.471Z,97168.25
2023-06-17T08:32:41.216Z,97172.47
2023-06-17T08:34:53.488Z,97166.91
2023-06-17T08:37:05.145Z,97162.22
2023-06-17T08:39:09.198Z,97163.25
2023-06-17T08:41:22.560Z,97159.63
2023-06-17T08:43:27.416Z,97166.88
2023-06-17T08:45:34.660Z,97162.41
2023-06-17T08:47:40.644Z,97158.78
2023-06-17T08:49:50.773Z,97163.00
2023-06-17T08:51:53.874Z,97149.69
2023-06-17T08:54:00.356Z,97148.84
2023-06-17T08:56:06.646Z,97148.84
2023-06-17T08:58:23.046Z,97149.44
2023-06-17T09:00:39.807Z,97157.13
2023-06-17T09:02:47.690Z,97145.53
2023-06-17T09:04:53.801Z,97147.13
2023-06-17T09:07:00.496Z,97146.97
2023-06-17T09:09:13.358Z,97150.22
2023-06-17T09:11:19.129Z,97145.75
2023-06-17T09:13:22.134Z,97149.09
2023-06-17T09:15:27.783Z,97145.50
2023-06-17T09:17:59.122Z,97145.38
2023-06-17T09:20:17.576Z,97147.13
2023-06-17T09:22:20.593Z,97145.19
2023-06-17T09:24:32.165Z,97141.97
2023-06-17T09:28:48.545Z,97142.44
2023-06-17T09:30:54.746Z,97136.03
2023-06-17T09:32:58.951Z,97133.97
2023-06-17T09:35:05.416Z,97130.19
2023-06-17T09:37:44.605Z,97130.06
2023-06-17T09:40:01.278Z,97121.72
2023-06-17T09:42:15.840Z,97123.13
2023-06-17T09:47:14.787Z,97124.03
2023-06-17T09:49:27.225Z,97120.00
2023-06-17T09:53:50.909Z,97125.38
2023-06-17T09:56:12.950Z,97123.28
2023-06-17T09:58:45.005Z,97120.50
2023-06-17T10:00:53.014Z,97121.19
2023-06-17T10:03:04.392Z,97115.06
2023-06-17T10:05:08.790Z,97117.16
2023-06-17T10:07:41.157Z,97109.63
2023-06-17T10:09:44.106Z,97110.19
2023-06-17T10:11:50.229Z,97105.72
2023-06-17T10:13:58.300Z,97102.69
2023-06-17T10:16:03.327Z,97095.94
2023-06-17T10:18:09.148Z,97100.06
2023-06-17T10:20:14.077Z,97096.16
2023-06-17T10:22:20.937Z,97092.91
2023-06-17T10:24:25.367Z,97097.94
2023-06-17T10:26:31.988Z,97096.00
2023-06-17T10:28:58.576Z,97098.50
2023-06-17T10:31:10.711Z,97093.88
2023-06-17T10:33:14.019Z,97090.25
2023-06-17T10:35:16.740Z,97088.59
2023-06-17T10:37:28.784Z,97087.16
2023-06-17T10:39:31.443Z,97083.09
2023-06-17T10:41:59.038Z,97076.69
2023-06-17T10:44:03.383Z,97072.19
2023-06-17T10:46:07.351Z,97075.69
2023-06-17T10:48:16.474Z,97079.31
2023-06-17T10:50:23.458Z,97079.47
2023-06-17T10:52:26.268Z,97075.13
2023-06-17T10:54:29.392Z,97076.66
2023-06-17T10:56:33.881Z,97081.81
2023-06-17T10:58:38.358Z,97071.75
2023-06-17T11:00:41.014Z,97074.25
2023-06-17T11:02:45.012Z,97068.66
2023-06-17T11:04:49.573Z,97066.81
2023-06-17T11:06:52.240Z,97071.44
2023-06-17T11:08:54.819Z,97072.56
2023-06-17T11:11:07.980Z,97075.19
2023-06-17T11:13:10.589Z,97075.47
2023-06-17T11:15:13.252Z,97072.34
2023-06-17T11:17:16.098Z,97065.50
2023-06-17T11:19:20.130Z,97070.41
2023-06-17T11:21:22.798Z,97069.78
2023-06-17T11:23:27.410Z,97068.53
2023-06-17T11:25:43.588Z,97061.25
2023-06-17T11:27:48.120Z,97065.25
2023-06-17T11:29:50.963Z,97066.16
2023-06-17T11:31:53.687Z,97066.47
2023-06-17T11:34:00.366Z,97074.16
2023-06-17T11:36:08.521Z,97071.66
2023-06-17T11:38:12.402Z,97061.53
2023-06-17T11:40:15.142Z,97060.53
2023-06-17T11:42:17.884Z,97068.91
2023-06-17T11:44:21.044Z,97051.50
2023-06-17T11:46:25.710Z,97057.41
2023-06-17T11:48:29.639Z,97059.31
2023-06-17T11:50:32.311Z,97041.88
2023-06-17T11:52:36.859Z,97051.41
2023-06-17T11:54:46.687Z,97051.31
2023-06-17T11:56:50.002Z,97059.16
2023-06-17T11:58:54.000Z,97058.94
2023-06-17T12:01:00.467Z,97056.03
2023-06-17T12:03:04.890Z,97055.81
2023-06-17T12:05:07.991Z,97049.41
2023-06-17T12:07:10.773Z,97052.22
2023-06-17T12:09:16.660Z,97049.09
2023-06-17T12:11:23.996Z,97052.31
2023-06-17T12:13:28.503Z,97041.88
2023-06-17T12:15:36.755Z,97050.94
2023-06-17T12:17:40.347Z,97047.84
2023-06-17T12:19:42.995Z,97050.88
2023-06-17T12:21:45.987Z,97044.13
2023-06-17T12:23:50.297Z,97043.97
2023-06-17T12:25:54.537Z,97039.22
2023-06-17T12:27:59.103Z,97032.88
2023-06-17T12:30:02.277Z,97037.63
2023-06-17T12:32:05.953Z,97038.38
2023-06-17T12:34:08.631Z,97032.34
2023-06-17T12:36:11.317Z,97031.66
2023-06-17T12:38:14.008Z,97037.00
2023-06-17T12:40:16.622Z,97028.16
2023-06-17T12:42:20.777Z,97024.31
2023-06-17T12:44:23.515Z,97021.78
2023-06-17T12:46:26.309Z,97033.91
2023-06-17T12:48:30.114Z,97026.50
2023-06-17T12:50:34.646Z,97023.75
2023-06-17T12:52:37.319Z,97031.66
2023-06-17T12:54:40.179Z,97033.75
2023-06-17T12:56:43.506Z,97021.66
2023-06-17T12:58:47.626Z,97026.47
2023-06-17T13:00:50.408Z,97021.69
2023-06-17T13:02:53.052Z,97025.66
2023-06-17T13:04:56.521Z,97016.16
2023-06-17T13:06:59.355Z,97015.69
2023-06-17T13:09:01.986Z,97018.63
2023-06-17T13:11:04.656Z,97009.38
2023-06-17T13:13:08.876Z,97001.88
2023-06-17T13:15:13.263Z,97004.78
2023-06-17T13:17:16.068Z,97001.06
2023-06-17T13:19:19.452Z,97003.38
2023-06-17T13:21:22.370Z,96999.09
2023-06-17T13:23:24.996Z,96994.97
2023-06-17T13:25:27.913Z,96994.72
2023-06-17T13:27:31.716Z,96989.81
2023-06-17T13:29:34.836Z,96997.78
2023-06-17T13:31:39.236Z,96991.03
2023-06-17T13:33:42.271Z,96990.41
2023-06-17T13:35:45.031Z,96981.28
2023-06-17T13:37:47.709Z,96988.84
2023-06-17T13:39:50.422Z,96979.09
2023-06-17T13:41:53.162Z,96985.50
2023-06-17T13:43:55.778Z,96981.88
2023-06-17T13:45:58.519Z,96984.63
2023-06-17T13:48:02.673Z,96984.09
2023-06-17T13:50:08.740Z,96982.91
2023-06-17T13:52:13.733Z,96984.28
2023-06-17T13:54:19.413Z,96984.69
2023-06-17T13:56:22.061Z,96979.13
2023-06-17T13:58:24.692Z,96969.03
2023-06-17T14:00:27.560Z,96970.69
2023-06-17T14:02:30.196Z,96969.59
2023-06-17T14:04:34.682Z,96973.22
2023-06-17T14:06:37.320Z,96967.09
2023-06-17T14:08:40.040Z,96968.75
2023-06-17T14:10:42.763Z,96957.63
2023-06-17T14:12:45.420Z,96962.72
2023-06-17T14:14:48.078Z,96959.78
2023-06-17T14:16:50.903Z,96963.94
2023-06-17T14:18:53.591Z,96971.19
2023-06-17T14:20:57.592Z,96964.13
2023-06-17T14:23:01.185Z,96967.28
2023-06-17T14:25:04.017Z,96964.78
2023-06-17T14:27:43.201Z,96957.28
2023-06-17T14:29:45.843Z,96964.84
2023-06-17T14:31:48.478Z,96959.44
2023-06-17T14:33:51.357Z,96960.78
2023-06-17T14:35:53.973Z,96953.25
2023-06-17T14:37:57.952Z,96945.25
2023-06-17T14:40:02.173Z,96956.44
2023-06-17T14:42:05.370Z,96954.22
2023-06-17T14:44:08.000Z,96946.09
2023-06-17T14:46:11.368Z,96949.13
2023-06-17T14:48:14.044Z,96947.13
2023-06-17T14:50:16.759Z,96948.09
2023-06-17T14:52:19.484Z,96942.34
2023-06-17T14:54:23.487Z,96948.09
2023-06-17T14:56:28.636Z,96957.59
2023-06-17T14:58:31.300Z,96950.63
2023-06-17T15:00:33.980Z,96948.03
2023-06-17T15:02:52.893Z,96950.91
2023-06-17T15:04:55.586Z,96952.31
2023-06-17T15:06:58.282Z,96947.59
2023-06-17T15:09:10.368Z,96945.78
2023-06-17T15:11:14.434Z,96941.31
2023-06-17T15:13:17.088Z,96946.00
2023-06-17T15:15:20.055Z,96938.25
2023-06-17T15:17:23.190Z,96937.09
2023-06-17T15:19:25.838Z,96934.63
2023-06-17T15:21:28.454Z,96928.28
2023-06-17T15:23:31.194Z,96923.66
2023-06-17T15:25:34.119Z,96927.56
2023-06-17T15:27:38.099Z,96929.06
2023-06-17T15:29:41.297Z,96928.63
2023-06-17T15:31:45.258Z,96928.47
2023-06-17T15:33:47.900Z,96925.53
2023-06-17T15:35:50.645Z,96926.72
2023-06-17T15:37:53.349Z,96918.97
2023-06-17T15:39:55.996Z,96914.00
2023-06-17T15:41:58.611Z,96918.97
2023-06-17T15:44:03.270Z,96922.28
2023-06-17T15:46:05.897Z,96915.63
2023-06-17T15:48:08.589Z,96918.66
2023-06-17T15:50:12.113Z,96913.13
2023-06-17T15:52:14.752Z,96920.03
2023-06-17T15:54:19.178Z,96923.97
2023-06-17T15:56:22.353Z,96921.78
2023-06-17T15:58:25.033Z,96921.16
2023-06-17T16:00:28.995Z,96918.34
2023-06-17T16:02:31.718Z,96912.28
2023-06-17T16:04:34.904Z,96922.88
2023-06-17T16:06:37.576Z,96913.88
2023-06-17T16:08:40.601Z,96918.47
2023-06-17T16:10:43.279Z,96918.66
2023-06-17T16:12:46.083Z,96918.03
2023-06-17T16:14:48.695Z,96919.59
2023-06-17T16:16:52.657Z,96910.69
2023-06-17T16:18:55.279Z,96917.84
2023-06-17T16:20:57.989Z,96915.84
2023-06-17T16:23:00.706Z,96921.44
2023-06-17T16:25:03.459Z,96909.84
2023-06-17T16:27:06.389Z,96915.81
2023-06-17T16:29:12.357Z,96915.81
2023-06-17T16:31:15.070Z,96916.66
2023-06-17T16:33:19.023Z,96912.50
2023-06-17T16:35:21.707Z,96916.97
2023-06-17T16:37:25.701Z,96919.22
2023-06-17T16:39:28.711Z,96922.34
2023-06-17T16:41:31.365Z,96918.69
2023-06-17T16:43:34.009Z,96925.50
2023-06-17T16:45:36.720Z,96930.97
2023-06-17T16:47:39.688Z,96926.75
2023-06-17T16:49:43.942Z,96930.44
2023-06-17T16:51:46.566Z,96930.63
2023-06-17T16:53:49.180Z,96935.94
2023-06-17T16:55:51.801Z,96930.13
2023-06-17T16:57:54.469Z,96938.28
2023-06-17T16:59:57.099Z,96937.16
2023-06-17T17:02:00.715Z,96942.53
2023-06-17T17:04:12.017Z,96940.13
2023-06-17T17:06:16.054Z,96941.19
2023-06-17T17:08:18.706Z,96938.31
2023-06-17T17:10:24.385Z,96944.41
2023-06-17T17:12:27.260Z,96943.88
2023-06-17T17:14:29.894Z,96939.88
2023-06-17T17:16:32.773Z,96940.25
2023-06-17T17:18:35.556Z,96940.25
2023-06-17T17:20:38.309Z,96941.00
2023-06-17T17:22:43.142Z,96936.69
2023-06-17T17:24:45.885Z,96941.84
2023-06-17T17:26:48.522Z,96944.91
2023-06-17T17:28:51.150Z,96946.38
2023-06-17T17:30:53.986Z,96946.44
2023-06-17T17:32:56.672Z,96940.97
2023-06-17T17:34:59.375Z,96947.88
2023-06-17T17:37:01.990Z,96947.78
2023-06-17T17:39:07.886Z,96948.34
2023-06-17T17:41:10.672Z,96942.88
2023-06-17T17:43:13.360Z,96948.13
2023-06-17T17:45:16.695Z,96954.84
2023-06-17T17:47:19.337Z,96953.22
2023-06-17T17:49:22.767Z,96947.38
2023-06-17T17:51:25.745Z,96954.25
2023-06-17T17:53:29.567Z,96952.59
2023-06-17T17:55:33.618Z,96941.22
2023-06-17T17:57:36.292Z,96953.09
2023-06-17T17:59:38.876Z,96958.94
2023-06-17T18:01:41.520Z,96952.03
2023-06-17T18:03:44.158Z,96959.78
2023-06-17T18:05:46.803Z,96961.97
2023-06-17T18:07:53.725Z,96967.97
2023-06-17T18:09:56.461Z,96970.63
2023-06-17T18:12:00.455Z,96964.16
2023-06-17T18:14:03.090Z,96966.88
2023-06-17T18:16:06.154Z,96968.06
2023-06-17T18:18:08.892Z,96974.78
2023-06-17T18:20:11.936Z,96972.59
2023-06-17T18:22:16.595Z,96981.19
2023-06-17T18:24:20.672Z,96973.38
2023-06-17T18:26:23.592Z,96977.41
2023-06-17T18:28:27.553Z,96974.75
2023-06-17T18:30:30.466Z,96979.94
2023-06-17T18:32:33.199Z,96978.50
2023-06-17T18:34:35.868Z,96981.81
2023-06-17T18:36:38.579Z,96985.97
2023-06-17T18:38:43.547Z,96978.47
2023-06-17T18:40:47.352Z,96984.81
2023-06-17T18:42:50.120Z,96984.34
2023-06-17T18:44:54.142Z,96979.31
2023-06-17T18:46:57.404Z,96982.34
2023-06-17T18:49:00.193Z,96982.00
2023-06-17T18:51:03.144Z,96983.34
2023-06-17T18:53:06.760Z,96988.34
2023-06-17T18:55:09.751Z,96987.19
2023-06-17T18:57:12.493Z,96988.72
2023-06-17T18:59:15.729Z,96994.72
2023-06-17T19:01:19.933Z,96995.41
2023-06-17T19:03:22.612Z,96995.19
2023-06-17T19:05:25.223Z,97000.22
2023-06-17T19:07:27.862Z,96997.34
2023-06-17T19:09:30.591Z,97003.19
2023-06-17T19:11:33.223Z,97003.66
2023-06-17T19:13:35.974Z,97007.16
2023-06-17T19:15:39.758Z,97008.81
2023-06-17T19:17:44.105Z,97009.47
2023-06-17T19:19:47.789Z,97010.97
2023-06-17T19:21:50.836Z,97008.09
2023-06-17T19:23:54.080Z,97016.59
2023-06-17T19:25:56.862Z,97012.72
2023-06-17T19:27:59.823Z,97011.69
2023-06-17T19:30:05.249Z,97021.00
2023-06-17T19:32:08.648Z,97025.31
2023-06-17T19:34:12.688Z,97017.94
2023-06-17T19:36:15.431Z,97019.56
2023-06-17T19:38:18.084Z,97025.03
2023-06-17T19:40:21.052Z,97026.97
2023-06-17T19:42:24.265Z,97024.09
2023-06-17T19:44:33.367Z,97033.56
2023-06-17T19:46:36.357Z,97036.00
2023-06-17T19:48:39.191Z,97033.09
2023-06-17T19:50:43.986Z,97038.19
2023-06-17T19:52:46.680Z,97039.97
2023-06-17T19:54:49.366Z,97036.25
2023-06-17T19:56:52.327Z,97045.16
2023-06-17T19:58:54.954Z,97041.28
2023-06-17T20:01:01.731Z,97036.72
2023-06-17T20:03:05.087Z,97043.47
2023-06-17T20:05:09.578Z,97047.59
2023-06-17T20:07:13.880Z,97044.84
2023-06-17T20:09:16.684Z,97046.59
2023-06-17T20:11:20.277Z,97044.34
2023-06-17T20:13:23.380Z,97043.97
2023-06-17T20:15:26.927Z,97046.91
2023-06-17T20:17:29.758Z,97043.59
2023-06-17T20:19:32.414Z,97046.38
2023-06-17T20:21:35.069Z,97045.56
2023-06-17T20:23:40.639Z,97052.69
2023-06-17T20:25:44.398Z,97050.03
2023-06-17T20:27:48.205Z,97042.03
2023-06-17T20:29:51.755Z,97052.69
2023-06-17T20:31:54.414Z,97047.38
2023-06-17T20:33:57.003Z,97051.03
2023-06-17T20:35:59.679Z,97044.88
2023-06-17T20:38:02.929Z,97046.69
2023-06-17T20:40:11.462Z,97041.34
2023-06-17T20:42:14.221Z,97041.66
2023-06-17T20:44:16.975Z,97038.16
2023-06-17T20:46:19.677Z,97044.47
2023-06-17T20:48:22.313Z,97042.13
2023-06-17T20:50:26.280Z,97041.28
2023-06-17T20:52:30.741Z,97041.28
2023-06-17T20:57:00.765Z,97042.69
2023-06-17T20:59:03.839Z,97044.81
2023-06-17T21:01:06.562Z,97048.75
2023-06-17T21:03:11.485Z,97050.75
2023-06-17T21:05:14.185Z,97053.53
2023-06-17T21:07:16.996Z,97061.81
2023-06-17T21:09:20.047Z,97059.16
2023-06-17T21:11:23.041Z,97056.09
2023-06-17T21:13:27.040Z,97055.41
2023-06-17T21:15:29.778Z,97057.81
2023-06-17T21:17:32.465Z,97046.06
2023-06-17T21:19:35.142Z,97061.34
2023-06-17T21:21:37.867Z,97060.78
2023-06-17T21:23:40.861Z,97055.75
2023-06-17T21:25:43.762Z,97063.00
2023-06-17T21:27:47.144Z,97064.00
2023-06-17T21:29:51.175Z,97058.84
2023-06-17T21:31:53.915Z,97060.09
2023-06-17T21:33:56.560Z,97058.59
2023-06-17T21:35:59.465Z,97055.53
2023-06-17T21:38:02.119Z,97055.53
2023-06-17T21:40:05.280Z,97053.97
2023-06-17T21:42:08.181Z,97056.78
2023-06-17T21:44:10.831Z,97062.25
2023-06-17T21:46:14.968Z,97059.84
2023-06-17T21:48:18.114Z,97064.50
2023-06-17T21:50:21.292Z,97062.25
2023-06-17T21:52:24.117Z,97061.44
2023-06-17T21:54:26.904Z,97059.19
2023-06-17T21:56:29.646Z,97059.31
2023-06-17T21:58:32.282Z,97055.16
2023-06-17T22:00:34.963Z,97056.97
2023-06-17T22:02:39.063Z,97056.97
2023-06-17T22:04:41.766Z,97050.94
2023-06-17T22:06:44.867Z,97046.63
2023-06-17T22:09:18.328Z,97052.06
2023-06-17T22:11:21.221Z,97056.69
2023-06-17T22:13:23.907Z,97063.97
2023-06-17T22:15:27.233Z,97054.59
2023-06-17T22:17:29.977Z,97055.03
2023-06-17T22:19:34.634Z,97051.25
2023-06-17T22:21:37.823Z,97051.94
2023-06-17T22:23:40.529Z,97056.44
2023-06-17T22:25:43.497Z,97054.88
2023-06-17T22:27:46.606Z,97049.97
2023-06-17T22:29:49.253Z,97049.41
2023-06-17T22:31:51.897Z,97050.38
2023-06-17T22:33:54.561Z,97048.28
2023-06-17T22:35:58.587Z,97051.63
2023-06-17T22:38:01.227Z,97045.47
2023-06-17T22:40:06.573Z,97043.38
2023-06-17T22:42:09.310Z,97044.75
2023-06-17T22:44:11.972Z,97040.44
2023-06-17T22:46:14.651Z,97032.34
2023-06-17T22:48:17.271Z,97035.94
2023-06-17T22:50:20.264Z,97041.25
2023-06-17T22:52:24.574Z,97038.03
2023-06-17T22:54:27.196Z,97038.03
2023-06-17T22:56:29.828Z,97033.00
2023-06-17T22:58:32.714Z,97038.47
2023-06-17T23:00:35.480Z,97027.56
2023-06-17T23:02:38.237Z,97034.69
2023-06-17T23:04:41.515Z,97030.06
2023-06-17T23:06:44.197Z,97032.16
2023-06-17T23:08:48.113Z,97034.81
2023-06-17T23:10:50.781Z,97029.41
2023-06-17T23:12:53.488Z,97035.53
2023-06-17T23:14:56.196Z,97033.84
2023-06-17T23:16:58.945Z,97024.47
2023-06-17T23:19:02.411Z,97032.88
2023-06-17T23:21:05.923Z,97031.31
2023-06-17T23:23:08.576Z,97027.84
2023-06-17T23:25:12.579Z,97027.81
2023-06-17T23:27:16.470Z,97025.84
2023-06-17T23:29:19.765Z,97026.81
2023-06-17T23:31:22.426Z,97033.81
2023-06-17T23:33:26.608Z,97033.81
2023-06-17T23:37:47.275Z,97033.81
2023-06-17T23:39:49.943Z,97035.63
2023-06-17T23:41:54.504Z,97034.06
2023-06-17T23:43:57.163Z,97025.38
2023-06-17T23:50:24.459Z,97034.41
2023-06-17T23:52:27.302Z,97032.16
2023-06-17T23:54:29.927Z,97034.66
2023-06-17T23:56:32.559Z,97031.56
2023-06-17T23:58:35.249Z,97033.88
